sensor_id;sensor_type;location;lat;lon;timestamp;P1;durP1;ratioP1;P2;durP2;ratioP2
10120;SDS011;5100;45.176;5.714;2023-04-16T00:01:10;1.63;;;1.53;;
10120;SDS011;5100;45.176;5.714;2023-04-16T00:03:37;1.40;;;1.30;;
10120;SDS011;5100;45.176;5.714;2023-04-16T00:06:04;1.20;;;1.20;;
10120;SDS011;5100;45.176;5.714;2023-04-16T00:08:30;1.50;;;1.40;;
10120;SDS011;5100;45.176;5.714;2023-04-16T00:10:56;1.60;;;1.50;;
10120;SDS011;5100;45.176;5.714;2023-04-16T00:13:22;2.63;;;1.50;;
10120;SDS011;5100;45.176;5.714;2023-04-16T00:15:50;1.20;;;1.20;;
10120;SDS011;5100;45.176;5.714;2023-04-16T00:18:16;1.20;;;1.20;;
10120;SDS011;5100;45.176;5.714;2023-04-16T00:20:42;1.40;;;1.30;;
10120;SDS011;5100;45.176;5.714;2023-04-16T00:23:08;1.10;;;1.10;;
10120;SDS011;5100;45.176;5.714;2023-04-16T00:25:34;1.30;;;1.20;;
10120;SDS011;5100;45.176;5.714;2023-04-16T00:28:00;1.30;;;1.20;;
10120;SDS011;5100;45.176;5.714;2023-04-16T00:30:26;1.30;;;1.20;;
10120;SDS011;5100;45.176;5.714;2023-04-16T00:32:52;1.60;;;1.50;;
10120;SDS011;5100;45.176;5.714;2023-04-16T00:35:18;3.50;;;2.00;;
10120;SDS011;5100;45.176;5.714;2023-04-16T00:37:45;2.20;;;2.10;;
10120;SDS011;5100;45.176;5.714;2023-04-16T00:40:11;2.00;;;1.90;;
10120;SDS011;5100;45.176;5.714;2023-04-16T00:42:37;1.70;;;1.60;;
10120;SDS011;5100;45.176;5.714;2023-04-16T00:45:03;1.80;;;1.50;;
10120;SDS011;5100;45.176;5.714;2023-04-16T00:47:30;1.20;;;1.20;;
10120;SDS011;5100;45.176;5.714;2023-04-16T00:49:56;1.60;;;1.50;;
10120;SDS011;5100;45.176;5.714;2023-04-16T00:52:22;1.00;;;1.00;;
10120;SDS011;5100;45.176;5.714;2023-04-16T00:54:50;1.50;;;1.40;;
10120;SDS011;5100;45.176;5.714;2023-04-16T00:57:16;1.50;;;1.40;;
10120;SDS011;5100;45.176;5.714;2023-04-16T00:59:45;1.50;;;1.37;;
10120;SDS011;5100;45.176;5.714;2023-04-16T01:02:11;1.50;;;1.40;;
10120;SDS011;5100;45.176;5.714;2023-04-16T01:04:38;1.20;;;1.20;;
10120;SDS011;5100;45.176;5.714;2023-04-16T01:07:05;1.20;;;1.20;;
10120;SDS011;5100;45.176;5.714;2023-04-16T01:09:31;2.20;;;1.17;;
10120;SDS011;5100;45.176;5.714;2023-04-16T01:11:57;1.50;;;1.40;;
10120;SDS011;5100;45.176;5.714;2023-04-16T01:14:23;1.23;;;1.23;;
10120;SDS011;5100;45.176;5.714;2023-04-16T01:16:49;1.33;;;1.30;;
10120;SDS011;5100;45.176;5.714;2023-04-16T01:19:15;1.60;;;1.50;;
10120;SDS011;5100;45.176;5.714;2023-04-16T01:21:41;1.13;;;1.13;;
10120;SDS011;5100;45.176;5.714;2023-04-16T01:24:08;1.30;;;1.30;;
10120;SDS011;5100;45.176;5.714;2023-04-16T01:26:34;2.00;;;1.50;;
10120;SDS011;5100;45.176;5.714;2023-04-16T01:29:01;1.70;;;1.60;;
10120;SDS011;5100;45.176;5.714;2023-04-16T01:31:27;2.17;;;1.70;;
10120;SDS011;5100;45.176;5.714;2023-04-16T01:33:54;1.47;;;1.43;;
10120;SDS011;5100;45.176;5.714;2023-04-16T01:36:21;1.80;;;1.70;;
10120;SDS011;5100;45.176;5.714;2023-04-16T01:38:48;2.10;;;1.97;;
10120;SDS011;5100;45.176;5.714;2023-04-16T01:41:16;2.33;;;2.10;;
10120;SDS011;5100;45.176;5.714;2023-04-16T01:43:42;2.10;;;2.00;;
10120;SDS011;5100;45.176;5.714;2023-04-16T01:46:27;1.93;;;1.83;;
10120;SDS011;5100;45.176;5.714;2023-04-16T01:48:53;2.00;;;1.90;;
10120;SDS011;5100;45.176;5.714;2023-04-16T01:51:20;2.43;;;2.23;;
10120;SDS011;5100;45.176;5.714;2023-04-16T01:53:46;3.83;;;2.20;;
10120;SDS011;5100;45.176;5.714;2023-04-16T01:56:13;1.90;;;1.80;;
10120;SDS011;5100;45.176;5.714;2023-04-16T01:58:40;2.37;;;1.90;;
10120;SDS011;5100;45.176;5.714;2023-04-16T02:01:07;2.00;;;1.90;;
10120;SDS011;5100;45.176;5.714;2023-04-16T02:03:35;2.00;;;1.90;;
10120;SDS011;5100;45.176;5.714;2023-04-16T02:06:02;2.17;;;1.97;;
10120;SDS011;5100;45.176;5.714;2023-04-16T02:08:28;1.80;;;1.70;;
10120;SDS011;5100;45.176;5.714;2023-04-16T02:10:55;3.47;;;2.13;;
10120;SDS011;5100;45.176;5.714;2023-04-16T02:13:22;2.10;;;2.00;;
10120;SDS011;5100;45.176;5.714;2023-04-16T02:15:49;2.33;;;2.23;;
10120;SDS011;5100;45.176;5.714;2023-04-16T02:18:17;2.33;;;2.13;;
10120;SDS011;5100;45.176;5.714;2023-04-16T02:20:44;2.63;;;2.37;;
10120;SDS011;5100;45.176;5.714;2023-04-16T02:23:12;3.60;;;2.40;;
10120;SDS011;5100;45.176;5.714;2023-04-16T02:25:43;2.23;;;2.13;;
10120;SDS011;5100;45.176;5.714;2023-04-16T02:28:12;2.77;;;2.57;;
10120;SDS011;5100;45.176;5.714;2023-04-16T02:30:40;3.00;;;2.80;;
10120;SDS011;5100;45.176;5.714;2023-04-16T02:33:07;3.00;;;2.80;;
10120;SDS011;5100;45.176;5.714;2023-04-16T02:35:37;3.17;;;2.97;;
10120;SDS011;5100;45.176;5.714;2023-04-16T02:38:04;3.40;;;3.17;;
10120;SDS011;5100;45.176;5.714;2023-04-16T02:40:31;3.20;;;3.00;;
10120;SDS011;5100;45.176;5.714;2023-04-16T02:42:58;2.80;;;2.60;;
10120;SDS011;5100;45.176;5.714;2023-04-16T02:45:25;3.57;;;3.27;;
10120;SDS011;5100;45.176;5.714;2023-04-16T02:47:51;3.53;;;3.23;;
10120;SDS011;5100;45.176;5.714;2023-04-16T02:50:17;3.07;;;2.87;;
10120;SDS011;5100;45.176;5.714;2023-04-16T02:52:43;2.90;;;2.70;;
10120;SDS011;5100;45.176;5.714;2023-04-16T02:55:10;3.13;;;2.83;;
10120;SDS011;5100;45.176;5.714;2023-04-16T02:57:36;2.80;;;2.60;;
10120;SDS011;5100;45.176;5.714;2023-04-16T03:00:02;3.20;;;3.00;;
10120;SDS011;5100;45.176;5.714;2023-04-16T03:02:31;3.27;;;2.87;;
10120;SDS011;5100;45.176;5.714;2023-04-16T03:04:58;3.23;;;3.03;;
10120;SDS011;5100;45.176;5.714;2023-04-16T03:07:24;2.90;;;2.60;;
10120;SDS011;5100;45.176;5.714;2023-04-16T03:09:50;2.80;;;2.60;;
10120;SDS011;5100;45.176;5.714;2023-04-16T03:12:16;3.23;;;2.93;;
10120;SDS011;5100;45.176;5.714;2023-04-16T03:14:43;3.90;;;2.97;;
10120;SDS011;5100;45.176;5.714;2023-04-16T03:17:09;3.03;;;2.73;;
10120;SDS011;5100;45.176;5.714;2023-04-16T03:19:36;2.83;;;2.63;;
10120;SDS011;5100;45.176;5.714;2023-04-16T03:22:03;3.30;;;3.10;;
10120;SDS011;5100;45.176;5.714;2023-04-16T03:24:29;2.70;;;2.50;;
10120;SDS011;5100;45.176;5.714;2023-04-16T03:26:58;3.30;;;3.00;;
10120;SDS011;5100;45.176;5.714;2023-04-16T03:29:27;3.20;;;2.97;;
10120;SDS011;5100;45.176;5.714;2023-04-16T03:31:53;2.97;;;2.77;;
10120;SDS011;5100;45.176;5.714;2023-04-16T03:34:19;2.93;;;2.73;;
10120;SDS011;5100;45.176;5.714;2023-04-16T03:36:46;3.33;;;3.03;;
10120;SDS011;5100;45.176;5.714;2023-04-16T03:39:12;2.90;;;2.67;;
10120;SDS011;5100;45.176;5.714;2023-04-16T03:41:39;3.00;;;2.80;;
10120;SDS011;5100;45.176;5.714;2023-04-16T03:44:05;3.37;;;3.17;;
10120;SDS011;5100;45.176;5.714;2023-04-16T03:46:32;3.50;;;3.20;;
10120;SDS011;5100;45.176;5.714;2023-04-16T03:48:58;5.10;;;3.37;;
10120;SDS011;5100;45.176;5.714;2023-04-16T03:51:24;3.27;;;3.07;;
10120;SDS011;5100;45.176;5.714;2023-04-16T03:53:50;3.50;;;3.20;;
10120;SDS011;5100;45.176;5.714;2023-04-16T03:56:17;3.00;;;2.80;;
10120;SDS011;5100;45.176;5.714;2023-04-16T03:58:43;3.20;;;2.90;;
10120;SDS011;5100;45.176;5.714;2023-04-16T04:01:09;3.43;;;3.13;;
10120;SDS011;5100;45.176;5.714;2023-04-16T04:03:36;3.90;;;3.20;;
10120;SDS011;5100;45.176;5.714;2023-04-16T04:06:06;4.23;;;3.40;;
10120;SDS011;5100;45.176;5.714;2023-04-16T04:08:33;3.70;;;3.40;;
10120;SDS011;5100;45.176;5.714;2023-04-16T04:10:59;3.80;;;3.47;;
10120;SDS011;5100;45.176;5.714;2023-04-16T04:13:26;4.73;;;3.73;;
10120;SDS011;5100;45.176;5.714;2023-04-16T04:15:52;4.60;;;3.97;;
10120;SDS011;5100;45.176;5.714;2023-04-16T04:18:19;4.40;;;4.03;;
10120;SDS011;5100;45.176;5.714;2023-04-16T04:20:45;4.53;;;4.13;;
10120;SDS011;5100;45.176;5.714;2023-04-16T04:23:12;4.13;;;3.77;;
10120;SDS011;5100;45.176;5.714;2023-04-16T04:25:39;4.37;;;4.00;;
10120;SDS011;5100;45.176;5.714;2023-04-16T04:28:06;4.30;;;3.87;;
10120;SDS011;5100;45.176;5.714;2023-04-16T04:30:32;4.30;;;4.00;;
10120;SDS011;5100;45.176;5.714;2023-04-16T04:33:00;4.77;;;4.40;;
10120;SDS011;5100;45.176;5.714;2023-04-16T04:35:26;4.60;;;4.20;;
10120;SDS011;5100;45.176;5.714;2023-04-16T04:37:53;4.93;;;4.53;;
10120;SDS011;5100;45.176;5.714;2023-04-16T04:40:19;5.13;;;4.63;;
10120;SDS011;5100;45.176;5.714;2023-04-16T04:42:45;4.50;;;4.10;;
10120;SDS011;5100;45.176;5.714;2023-04-16T04:45:11;4.90;;;4.43;;
10120;SDS011;5100;45.176;5.714;2023-04-16T04:47:39;4.53;;;4.17;;
10120;SDS011;5100;45.176;5.714;2023-04-16T04:50:05;5.10;;;4.60;;
10120;SDS011;5100;45.176;5.714;2023-04-16T04:52:32;4.60;;;4.20;;
10120;SDS011;5100;45.176;5.714;2023-04-16T04:54:59;5.03;;;4.67;;
10120;SDS011;5100;45.176;5.714;2023-04-16T04:57:25;5.00;;;4.60;;
10120;SDS011;5100;45.176;5.714;2023-04-16T04:59:52;5.03;;;4.63;;
10120;SDS011;5100;45.176;5.714;2023-04-16T05:02:19;5.00;;;4.60;;
10120;SDS011;5100;45.176;5.714;2023-04-16T05:04:45;5.13;;;4.73;;
10120;SDS011;5100;45.176;5.714;2023-04-16T05:07:11;4.90;;;4.50;;
10120;SDS011;5100;45.176;5.714;2023-04-16T05:09:37;5.23;;;4.63;;
10120;SDS011;5100;45.176;5.714;2023-04-16T05:12:03;5.27;;;4.77;;
10120;SDS011;5100;45.176;5.714;2023-04-16T05:14:29;4.97;;;4.57;;
10120;SDS011;5100;45.176;5.714;2023-04-16T05:16:55;5.17;;;4.77;;
10120;SDS011;5100;45.176;5.714;2023-04-16T05:19:21;5.63;;;5.03;;
10120;SDS011;5100;45.176;5.714;2023-04-16T05:21:47;5.33;;;4.80;;
10120;SDS011;5100;45.176;5.714;2023-04-16T05:24:14;5.67;;;5.17;;
10120;SDS011;5100;45.176;5.714;2023-04-16T05:26:40;5.30;;;4.90;;
10120;SDS011;5100;45.176;5.714;2023-04-16T05:29:06;5.63;;;4.80;;
10120;SDS011;5100;45.176;5.714;2023-04-16T05:31:32;5.30;;;4.90;;
10120;SDS011;5100;45.176;5.714;2023-04-16T05:33:58;6.10;;;5.60;;
10120;SDS011;5100;45.176;5.714;2023-04-16T05:36:24;4.93;;;4.50;;
10120;SDS011;5100;45.176;5.714;2023-04-16T05:38:50;5.47;;;5.03;;
10120;SDS011;5100;45.176;5.714;2023-04-16T05:41:16;5.00;;;4.60;;
10120;SDS011;5100;45.176;5.714;2023-04-16T05:43:42;5.17;;;4.67;;
10120;SDS011;5100;45.176;5.714;2023-04-16T05:46:08;4.90;;;4.50;;
10120;SDS011;5100;45.176;5.714;2023-04-16T05:48:34;4.47;;;4.13;;
10120;SDS011;5100;45.176;5.714;2023-04-16T05:51:00;4.30;;;4.00;;
10120;SDS011;5100;45.176;5.714;2023-04-16T05:53:27;3.87;;;3.57;;
10120;SDS011;5100;45.176;5.714;2023-04-16T05:55:53;3.77;;;3.47;;
10120;SDS011;5100;45.176;5.714;2023-04-16T05:58:19;4.10;;;3.80;;
10120;SDS011;5100;45.176;5.714;2023-04-16T06:00:46;4.97;;;4.57;;
10120;SDS011;5100;45.176;5.714;2023-04-16T06:03:13;5.07;;;4.60;;
10120;SDS011;5100;45.176;5.714;2023-04-16T06:05:39;5.00;;;4.60;;
10120;SDS011;5100;45.176;5.714;2023-04-16T06:08:05;6.10;;;4.27;;
10120;SDS011;5100;45.176;5.714;2023-04-16T06:10:31;4.67;;;4.23;;
10120;SDS011;5100;45.176;5.714;2023-04-16T06:12:57;4.40;;;4.00;;
10120;SDS011;5100;45.176;5.714;2023-04-16T06:15:23;4.47;;;4.07;;
10120;SDS011;5100;45.176;5.714;2023-04-16T06:17:50;3.70;;;3.40;;
10120;SDS011;5100;45.176;5.714;2023-04-16T06:20:16;3.80;;;3.50;;
10120;SDS011;5100;45.176;5.714;2023-04-16T06:22:42;3.47;;;3.17;;
10120;SDS011;5100;45.176;5.714;2023-04-16T06:25:08;3.87;;;3.57;;
10120;SDS011;5100;45.176;5.714;2023-04-16T06:27:34;4.27;;;3.93;;
10120;SDS011;5100;45.176;5.714;2023-04-16T06:30:00;4.20;;;3.90;;
10120;SDS011;5100;45.176;5.714;2023-04-16T06:32:27;4.33;;;3.90;;
10120;SDS011;5100;45.176;5.714;2023-04-16T06:34:52;4.37;;;3.97;;
10120;SDS011;5100;45.176;5.714;2023-04-16T06:37:18;4.40;;;3.93;;
10120;SDS011;5100;45.176;5.714;2023-04-16T06:39:45;4.43;;;4.13;;
10120;SDS011;5100;45.176;5.714;2023-04-16T06:42:11;4.60;;;4.20;;
10120;SDS011;5100;45.176;5.714;2023-04-16T06:44:37;4.33;;;3.97;;
10120;SDS011;5100;45.176;5.714;2023-04-16T06:47:04;4.13;;;3.83;;
10120;SDS011;5100;45.176;5.714;2023-04-16T06:49:30;4.80;;;4.40;;
10120;SDS011;5100;45.176;5.714;2023-04-16T06:51:56;4.20;;;3.80;;
10120;SDS011;5100;45.176;5.714;2023-04-16T06:54:22;4.50;;;4.10;;
10120;SDS011;5100;45.176;5.714;2023-04-16T06:56:48;4.87;;;4.50;;
10120;SDS011;5100;45.176;5.714;2023-04-16T06:59:14;4.53;;;4.23;;
10120;SDS011;5100;45.176;5.714;2023-04-16T07:01:40;5.13;;;4.47;;
10120;SDS011;5100;45.176;5.714;2023-04-16T07:04:06;4.40;;;4.00;;
10120;SDS011;5100;45.176;5.714;2023-04-16T07:06:33;5.17;;;4.17;;
10120;SDS011;5100;45.176;5.714;2023-04-16T07:09:00;4.40;;;4.07;;
10120;SDS011;5100;45.176;5.714;2023-04-16T07:11:26;3.70;;;3.40;;
10120;SDS011;5100;45.176;5.714;2023-04-16T07:13:52;3.77;;;3.50;;
10120;SDS011;5100;45.176;5.714;2023-04-16T07:16:19;3.70;;;3.50;;
10120;SDS011;5100;45.176;5.714;2023-04-16T07:18:45;3.73;;;3.43;;
10120;SDS011;5100;45.176;5.714;2023-04-16T07:21:11;4.70;;;4.30;;
10120;SDS011;5100;45.176;5.714;2023-04-16T07:23:37;4.30;;;4.00;;
10120;SDS011;5100;45.176;5.714;2023-04-16T07:26:03;7.03;;;4.40;;
10120;SDS011;5100;45.176;5.714;2023-04-16T07:28:29;4.60;;;4.20;;
10120;SDS011;5100;45.176;5.714;2023-04-16T07:30:55;4.73;;;4.33;;
10120;SDS011;5100;45.176;5.714;2023-04-16T07:33:21;5.40;;;4.57;;
10120;SDS011;5100;45.176;5.714;2023-04-16T07:35:48;4.83;;;4.33;;
10120;SDS011;5100;45.176;5.714;2023-04-16T07:38:15;4.30;;;4.00;;
10120;SDS011;5100;45.176;5.714;2023-04-16T07:40:41;5.07;;;4.67;;
10120;SDS011;5100;45.176;5.714;2023-04-16T07:43:07;4.87;;;4.33;;
10120;SDS011;5100;45.176;5.714;2023-04-16T07:45:34;4.30;;;4.00;;
10120;SDS011;5100;45.176;5.714;2023-04-16T07:48:00;4.80;;;4.30;;
10120;SDS011;5100;45.176;5.714;2023-04-16T07:50:26;4.77;;;4.43;;
10120;SDS011;5100;45.176;5.714;2023-04-16T07:52:52;4.50;;;4.10;;
10120;SDS011;5100;45.176;5.714;2023-04-16T07:55:18;4.20;;;3.80;;
10120;SDS011;5100;45.176;5.714;2023-04-16T07:57:44;5.73;;;4.43;;
10120;SDS011;5100;45.176;5.714;2023-04-16T08:00:11;4.33;;;4.03;;
10120;SDS011;5100;45.176;5.714;2023-04-16T08:02:38;6.83;;;3.87;;
10120;SDS011;5100;45.176;5.714;2023-04-16T08:05:05;4.13;;;3.73;;
10120;SDS011;5100;45.176;5.714;2023-04-16T08:07:31;5.27;;;3.97;;
10120;SDS011;5100;45.176;5.714;2023-04-16T08:09:57;4.80;;;4.30;;
10120;SDS011;5100;45.176;5.714;2023-04-16T08:12:24;4.13;;;3.80;;
10120;SDS011;5100;45.176;5.714;2023-04-16T08:14:50;7.33;;;3.90;;
10120;SDS011;5100;45.176;5.714;2023-04-16T08:17:16;5.03;;;3.47;;
10120;SDS011;5100;45.176;5.714;2023-04-16T08:19:43;5.50;;;4.20;;
10120;SDS011;5100;45.176;5.714;2023-04-16T08:22:11;4.50;;;4.10;;
10120;SDS011;5100;45.176;5.714;2023-04-16T08:24:38;4.57;;;3.87;;
10120;SDS011;5100;45.176;5.714;2023-04-16T08:27:04;4.30;;;3.90;;
10120;SDS011;5100;45.176;5.714;2023-04-16T08:29:31;4.50;;;4.13;;
10120;SDS011;5100;45.176;5.714;2023-04-16T08:32:00;4.40;;;4.00;;
10120;SDS011;5100;45.176;5.714;2023-04-16T08:34:26;4.20;;;3.70;;
10120;SDS011;5100;45.176;5.714;2023-04-16T08:36:52;4.77;;;4.13;;
10120;SDS011;5100;45.176;5.714;2023-04-16T08:39:18;4.77;;;4.37;;
10120;SDS011;5100;45.176;5.714;2023-04-16T08:41:46;5.23;;;4.77;;
10120;SDS011;5100;45.176;5.714;2023-04-16T08:44:25;4.53;;;4.13;;
10120;SDS011;5100;45.176;5.714;2023-04-16T08:46:55;4.50;;;4.10;;
10120;SDS011;5100;45.176;5.714;2023-04-16T08:49:23;4.93;;;4.43;;
10120;SDS011;5100;45.176;5.714;2023-04-16T08:51:50;4.10;;;3.57;;
10120;SDS011;5100;45.176;5.714;2023-04-16T08:57:18;4.45;;;4.10;;
10120;SDS011;5100;45.176;5.714;2023-04-16T08:59:47;3.92;;;3.60;;
10120;SDS011;5100;45.176;5.714;2023-04-16T09:02:14;4.30;;;3.90;;
10120;SDS011;5100;45.176;5.714;2023-04-16T09:04:40;4.33;;;3.53;;
10120;SDS011;5100;45.176;5.714;2023-04-16T09:07:08;4.30;;;3.90;;
10120;SDS011;5100;45.176;5.714;2023-04-16T09:09:35;4.03;;;3.63;;
10120;SDS011;5100;45.176;5.714;2023-04-16T09:12:03;4.13;;;3.73;;
10120;SDS011;5100;45.176;5.714;2023-04-16T09:14:30;5.00;;;4.00;;
10120;SDS011;5100;45.176;5.714;2023-04-16T09:16:56;3.97;;;3.53;;
10120;SDS011;5100;45.176;5.714;2023-04-16T09:19:26;4.43;;;3.40;;
10120;SDS011;5100;45.176;5.714;2023-04-16T09:21:53;4.70;;;3.67;;
10120;SDS011;5100;45.176;5.714;2023-04-16T09:24:19;3.57;;;3.10;;
10120;SDS011;5100;45.176;5.714;2023-04-16T09:26:46;4.40;;;3.77;;
10120;SDS011;5100;45.176;5.714;2023-04-16T09:29:32;3.43;;;3.13;;
10120;SDS011;5100;45.176;5.714;2023-04-16T09:32:02;3.50;;;3.20;;
10120;SDS011;5100;45.176;5.714;2023-04-16T09:34:31;5.07;;;3.67;;
10120;SDS011;5100;45.176;5.714;2023-04-16T09:37:14;3.53;;;3.23;;
10120;SDS011;5100;45.176;5.714;2023-04-16T09:39:42;4.30;;;3.97;;
10120;SDS011;5100;45.176;5.714;2023-04-16T09:42:09;4.40;;;3.40;;
10120;SDS011;5100;45.176;5.714;2023-04-16T09:44:36;4.68;;;3.22;;
10120;SDS011;5100;45.176;5.714;2023-04-16T09:47:06;3.60;;;3.30;;
10120;SDS011;5100;45.176;5.714;2023-04-16T09:49:34;3.70;;;3.40;;
10120;SDS011;5100;45.176;5.714;2023-04-16T09:52:08;2.93;;;2.70;;
10120;SDS011;5100;45.176;5.714;2023-04-16T09:54:52;3.97;;;3.27;;
10120;SDS011;5100;45.176;5.714;2023-04-16T09:57:19;4.07;;;3.30;;
10120;SDS011;5100;45.176;5.714;2023-04-16T09:59:53;6.90;;;3.37;;
10120;SDS011;5100;45.176;5.714;2023-04-16T10:02:25;3.03;;;2.83;;
10120;SDS011;5100;45.176;5.714;2023-04-16T10:04:53;3.30;;;3.05;;
10120;SDS011;5100;45.176;5.714;2023-04-16T10:07:20;3.90;;;3.50;;
10120;SDS011;5100;45.176;5.714;2023-04-16T10:09:48;4.25;;;3.28;;
10120;SDS011;5100;45.176;5.714;2023-04-16T10:12:18;2.87;;;2.67;;
10120;SDS011;5100;45.176;5.714;2023-04-16T10:14:44;2.92;;;2.70;;
10120;SDS011;5100;45.176;5.714;2023-04-16T10:17:10;2.97;;;2.70;;
10120;SDS011;5100;45.176;5.714;2023-04-16T10:19:37;4.03;;;3.08;;
10120;SDS011;5100;45.176;5.714;2023-04-16T10:22:03;3.22;;;2.85;;
10120;SDS011;5100;45.176;5.714;2023-04-16T10:24:31;2.53;;;2.30;;
10120;SDS011;5100;45.176;5.714;2023-04-16T10:26:58;3.10;;;2.40;;
10120;SDS011;5100;45.176;5.714;2023-04-16T10:29:25;2.70;;;2.50;;
10120;SDS011;5100;45.176;5.714;2023-04-16T10:31:53;3.42;;;2.50;;
10120;SDS011;5100;45.176;5.714;2023-04-16T10:34:22;3.00;;;2.50;;
10120;SDS011;5100;45.176;5.714;2023-04-16T10:36:50;2.72;;;2.53;;
10120;SDS011;5100;45.176;5.714;2023-04-16T10:39:18;2.53;;;2.33;;
10120;SDS011;5100;45.176;5.714;2023-04-16T10:41:47;2.60;;;2.40;;
10120;SDS011;5100;45.176;5.714;2023-04-16T10:44:15;2.40;;;2.20;;
10120;SDS011;5100;45.176;5.714;2023-04-16T10:46:45;2.28;;;2.17;;
10120;SDS011;5100;45.176;5.714;2023-04-16T10:52:25;3.72;;;2.42;;
10120;SDS011;5100;45.176;5.714;2023-04-16T10:54:37;3.05;;;2.40;;
10120;SDS011;5100;45.176;5.714;2023-04-16T10:57:04;2.40;;;2.20;;
10120;SDS011;5100;45.176;5.714;2023-04-16T10:59:33;3.90;;;2.37;;
10120;SDS011;5100;45.176;5.714;2023-04-16T11:02:05;2.90;;;2.67;;
10120;SDS011;5100;45.176;5.714;2023-04-16T11:04:33;2.62;;;2.42;;
10120;SDS011;5100;45.176;5.714;2023-04-16T11:12:33;3.80;;;2.60;;
10120;SDS011;5100;45.176;5.714;2023-04-16T11:15:03;2.83;;;2.40;;
10120;SDS011;5100;45.176;5.714;2023-04-16T11:17:38;2.62;;;2.42;;
10120;SDS011;5100;45.176;5.714;2023-04-16T11:20:06;3.53;;;2.50;;
10120;SDS011;5100;45.176;5.714;2023-04-16T11:22:33;2.20;;;2.05;;
10120;SDS011;5100;45.176;5.714;2023-04-16T11:25:03;2.40;;;2.20;;
10120;SDS011;5100;45.176;5.714;2023-04-16T11:27:30;3.90;;;2.90;;
10120;SDS011;5100;45.176;5.714;2023-04-16T11:30:02;2.55;;;2.35;;
10120;SDS011;5100;45.176;5.714;2023-04-16T11:32:30;2.33;;;2.12;;
10120;SDS011;5100;45.176;5.714;2023-04-16T11:35:01;3.65;;;2.45;;
10120;SDS011;5100;45.176;5.714;2023-04-16T11:37:36;2.80;;;2.45;;
10120;SDS011;5100;45.176;5.714;2023-04-16T11:40:06;2.60;;;2.40;;
10120;SDS011;5100;45.176;5.714;2023-04-16T11:42:34;3.28;;;2.45;;
10120;SDS011;5100;45.176;5.714;2023-04-16T11:45:08;2.40;;;2.20;;
10120;SDS011;5100;45.176;5.714;2023-04-16T11:47:42;2.50;;;2.30;;
10120;SDS011;5100;45.176;5.714;2023-04-16T11:50:17;2.70;;;2.33;;
10120;SDS011;5100;45.176;5.714;2023-04-16T11:52:44;3.50;;;2.35;;
10120;SDS011;5100;45.176;5.714;2023-04-16T11:55:11;4.07;;;2.40;;
10120;SDS011;5100;45.176;5.714;2023-04-16T11:57:37;2.72;;;2.37;;
10120;SDS011;5100;45.176;5.714;2023-04-16T12:00:04;2.22;;;2.03;;
10120;SDS011;5100;45.176;5.714;2023-04-16T12:05:27;2.58;;;2.37;;
10120;SDS011;5100;45.176;5.714;2023-04-16T12:07:58;2.17;;;2.08;;
10120;SDS011;5100;45.176;5.714;2023-04-16T12:10:26;2.20;;;1.85;;
10120;SDS011;5100;45.176;5.714;2023-04-16T12:12:53;2.35;;;2.15;;
10120;SDS011;5100;45.176;5.714;2023-04-16T12:15:19;2.65;;;2.20;;
10120;SDS011;5100;45.176;5.714;2023-04-16T12:17:45;4.65;;;2.35;;
10120;SDS011;5100;45.176;5.714;2023-04-16T12:20:12;2.30;;;2.10;;
10120;SDS011;5100;45.176;5.714;2023-04-16T12:22:44;3.78;;;2.50;;
10120;SDS011;5100;45.176;5.714;2023-04-16T12:25:12;2.97;;;2.35;;
10120;SDS011;5100;45.176;5.714;2023-04-16T12:27:41;3.95;;;2.22;;
10120;SDS011;5100;45.176;5.714;2023-04-16T12:30:15;3.03;;;2.45;;
10120;SDS011;5100;45.176;5.714;2023-04-16T12:32:43;3.20;;;2.53;;
10120;SDS011;5100;45.176;5.714;2023-04-16T12:35:10;3.70;;;2.62;;
10120;SDS011;5100;45.176;5.714;2023-04-16T12:37:37;2.60;;;2.40;;
10120;SDS011;5100;45.176;5.714;2023-04-16T12:40:04;4.10;;;2.37;;
10120;SDS011;5100;45.176;5.714;2023-04-16T12:42:31;6.45;;;2.70;;
10120;SDS011;5100;45.176;5.714;2023-04-16T12:45:04;2.70;;;2.50;;
10120;SDS011;5100;45.176;5.714;2023-04-16T12:47:31;2.90;;;2.67;;
10120;SDS011;5100;45.176;5.714;2023-04-16T12:49:57;3.50;;;2.72;;
10120;SDS011;5100;45.176;5.714;2023-04-16T12:52:24;4.12;;;2.72;;
10120;SDS011;5100;45.176;5.714;2023-04-16T12:54:50;3.53;;;2.72;;
10120;SDS011;5100;45.176;5.714;2023-04-16T12:57:17;2.62;;;2.42;;
10120;SDS011;5100;45.176;5.714;2023-04-16T12:59:43;6.87;;;2.72;;
10120;SDS011;5100;45.176;5.714;2023-04-16T13:02:11;3.05;;;2.30;;
10120;SDS011;5100;45.176;5.714;2023-04-16T13:04:37;3.00;;;2.80;;
10120;SDS011;5100;45.176;5.714;2023-04-16T13:07:04;3.05;;;2.35;;
10120;SDS011;5100;45.176;5.714;2023-04-16T13:09:30;2.60;;;2.40;;
10120;SDS011;5100;45.176;5.714;2023-04-16T13:11:56;5.82;;;2.28;;
10120;SDS011;5100;45.176;5.714;2023-04-16T13:14:22;4.20;;;2.60;;
10120;SDS011;5100;45.176;5.714;2023-04-16T13:16:48;4.25;;;2.62;;
10120;SDS011;5100;45.176;5.714;2023-04-16T13:19:14;2.78;;;2.58;;
10120;SDS011;5100;45.176;5.714;2023-04-16T13:21:41;2.60;;;2.40;;
10120;SDS011;5100;45.176;5.714;2023-04-16T13:24:07;3.08;;;2.87;;
10120;SDS011;5100;45.176;5.714;2023-04-16T13:26:33;4.18;;;2.53;;
10120;SDS011;5100;45.176;5.714;2023-04-16T13:29:00;2.35;;;2.25;;
10120;SDS011;5100;45.176;5.714;2023-04-16T13:31:26;2.78;;;2.37;;
10120;SDS011;5100;45.176;5.714;2023-04-16T13:33:52;4.47;;;2.60;;
10120;SDS011;5100;45.176;5.714;2023-04-16T13:36:19;2.90;;;2.70;;
10120;SDS011;5100;45.176;5.714;2023-04-16T13:38:44;3.97;;;3.20;;
10120;SDS011;5100;45.176;5.714;2023-04-16T13:41:10;2.83;;;2.62;;
10120;SDS011;5100;45.176;5.714;2023-04-16T13:43:37;2.90;;;2.70;;
10120;SDS011;5100;45.176;5.714;2023-04-16T13:46:03;3.30;;;2.70;;
10120;SDS011;5100;45.176;5.714;2023-04-16T13:48:29;3.08;;;2.72;;
10120;SDS011;5100;45.176;5.714;2023-04-16T13:50:55;3.40;;;3.10;;
10120;SDS011;5100;45.176;5.714;2023-04-16T13:53:21;3.40;;;3.10;;
10120;SDS011;5100;45.176;5.714;2023-04-16T13:55:47;3.80;;;3.00;;
10120;SDS011;5100;45.176;5.714;2023-04-16T13:58:14;3.10;;;2.80;;
10120;SDS011;5100;45.176;5.714;2023-04-16T14:00:41;3.15;;;2.85;;
10120;SDS011;5100;45.176;5.714;2023-04-16T14:03:07;3.30;;;2.80;;
10120;SDS011;5100;45.176;5.714;2023-04-16T14:05:33;4.78;;;3.15;;
10120;SDS011;5100;45.176;5.714;2023-04-16T14:07:59;3.45;;;3.15;;
10120;SDS011;5100;45.176;5.714;2023-04-16T14:10:26;4.53;;;2.90;;
10120;SDS011;5100;45.176;5.714;2023-04-16T14:12:52;3.30;;;3.05;;
10120;SDS011;5100;45.176;5.714;2023-04-16T14:15:18;4.70;;;3.90;;
10120;SDS011;5100;45.176;5.714;2023-04-16T14:17:45;3.15;;;2.85;;
10120;SDS011;5100;45.176;5.714;2023-04-16T14:20:12;3.20;;;2.90;;
10120;SDS011;5100;45.176;5.714;2023-04-16T14:22:38;5.07;;;3.45;;
10120;SDS011;5100;45.176;5.714;2023-04-16T14:25:07;4.05;;;3.10;;
10120;SDS011;5100;45.176;5.714;2023-04-16T14:27:33;3.62;;;3.33;;
10120;SDS011;5100;45.176;5.714;2023-04-16T14:29:59;4.47;;;3.35;;
10120;SDS011;5100;45.176;5.714;2023-04-16T14:32:25;3.85;;;3.47;;
10120;SDS011;5100;45.176;5.714;2023-04-16T14:34:51;4.22;;;3.83;;
10120;SDS011;5100;45.176;5.714;2023-04-16T14:37:17;5.68;;;4.75;;
10120;SDS011;5100;45.176;5.714;2023-04-16T14:39:44;4.72;;;3.30;;
10120;SDS011;5100;45.176;5.714;2023-04-16T14:42:10;6.15;;;4.18;;
10120;SDS011;5100;45.176;5.714;2023-04-16T14:44:36;5.07;;;4.32;;
10120;SDS011;5100;45.176;5.714;2023-04-16T14:47:03;6.07;;;4.57;;
10120;SDS011;5100;45.176;5.714;2023-04-16T14:49:29;5.40;;;4.07;;
10120;SDS011;5100;45.176;5.714;2023-04-16T14:51:55;4.80;;;4.40;;
10120;SDS011;5100;45.176;5.714;2023-04-16T14:54:21;5.05;;;3.80;;
10120;SDS011;5100;45.176;5.714;2023-04-16T14:56:48;5.05;;;4.65;;
10120;SDS011;5100;45.176;5.714;2023-04-16T14:59:14;5.57;;;4.32;;
10120;SDS011;5100;45.176;5.714;2023-04-16T15:01:41;4.97;;;4.18;;
10120;SDS011;5100;45.176;5.714;2023-04-16T15:04:07;6.07;;;4.43;;
10120;SDS011;5100;45.176;5.714;2023-04-16T15:06:33;4.70;;;4.25;;
10120;SDS011;5100;45.176;5.714;2023-04-16T15:09:00;5.37;;;4.82;;
10120;SDS011;5100;45.176;5.714;2023-04-16T15:11:27;4.60;;;4.20;;
10120;SDS011;5100;45.176;5.714;2023-04-16T15:13:54;4.85;;;4.45;;